Time;durP1;ratioP1;P1;durP2;ratioP2;P2;SDS_P1;SDS_P2;PMS_P1;PMS_P2;Temp;Humidity;BMP_temperature;BMP_pressure;BME280_temperature;BME280_humidity;BME280_pressure;Samples;Min_cycle;Max_cycle;Signal;HPM_P1;HPM_P2
2023/12/08 00:00:23;;;;;;;;;;;2.00;99.90;;;;;;5064994;28;19983;-79
2023/12/08 00:02:50;;;;;;;;;;;2.10;99.90;;;;;;5067834;28;20449;-79
2023/12/08 00:05:17;;;;;;;;;;;2.10;99.90;;;;;;5064610;28;20378;-79
2023/12/08 00:07:44;;;;;;;;;;;2.10;99.90;;;;;;5061951;28;20455;-80
2023/12/08 00:10:10;;;;;;;;;;;2.10;99.90;;;;;;5065515;28;20676;-78
2023/12/08 00:12:37;;;;;;;;;;;2.10;99.90;;;;;;5066845;28;19976;-79
2023/12/08 00:15:05;;;;;;;;;;;2.10;99.90;;;;;;5066065;28;19975;-79
2023/12/08 00:17:32;;;;;;;;;;;2.10;99.90;;;;;;5070203;28;19999;-79
2023/12/08 00:19:58;;;;;;;;;;;2.10;99.90;;;;;;5070791;28;20003;-81
2023/12/08 00:22:27;;;;;;;;;;;2.10;99.90;;;;;;5068739;28;20387;-78
2023/12/08 00:24:53;;;;;;;;;;;2.10;99.90;;;;;;5071318;28;20361;-77
2023/12/08 00:27:20;;;;;;;;;;;2.10;99.90;;;;;;5065997;28;19999;-79
2023/12/08 00:29:46;;;;;;;;;;;2.10;99.90;;;;;;5068180;28;19987;-80
2023/12/08 00:32:14;;;;;;;;;;;2.10;99.90;;;;;;5064686;28;20419;-78
2023/12/08 00:34:41;;;;;;;;;;;2.10;99.90;;;;;;5067983;28;19997;-79
2023/12/08 00:37:08;;;;;;;;;;;2.10;99.90;;;;;;5071963;28;19999;-79
2023/12/08 00:39:34;;;;;;;;;;;2.10;99.90;;;;;;5067693;28;20440;-81
2023/12/08 00:42:01;;;;;;;;;;;2.20;99.90;;;;;;5068568;28;19980;-80
2023/12/08 00:44:27;;;;;;;;;;;2.10;99.90;;;;;;5065063;28;19982;-79
2023/12/08 00:46:54;;;;;;;;;;;2.20;99.90;;;;;;5068343;28;20003;-79
2023/12/08 00:49:22;;;;;;;;;;;2.10;99.90;;;;;;5064069;28;20376;-80
2023/12/08 00:51:48;;;;;;;;;;;2.20;99.90;;;;;;5066967;28;20457;-79
2023/12/08 00:54:15;;;;;;;;;;;2.10;99.90;;;;;;5069785;28;20456;-80
2023/12/08 00:56:42;;;;;;;;;;;2.20;99.90;;;;;;5068079;28;20298;-80
2023/12/08 00:59:08;;;;;;;;;;;2.10;99.90;;;;;;5067480;28;20440;-80
2023/12/08 01:01:35;;;;;;;;;;;2.20;99.90;;;;;;5065303;28;19991;-79
2023/12/08 01:04:02;;;;;;;;;;;2.20;99.90;;;;;;5064394;28;19998;-79
2023/12/08 01:06:29;;;;;;;;;;;2.10;99.90;;;;;;5064755;28;20794;-80
2023/12/08 01:08:56;;;;;;;;;;;2.20;99.90;;;;;;5066180;28;19990;-79
2023/12/08 01:11:22;;;;;;;;;;;2.20;99.90;;;;;;5069362;28;20349;-80
2023/12/08 01:13:49;;;;;;;;;;;2.20;99.90;;;;;;5065736;28;20734;-79
2023/12/08 01:16:16;;;;;;;;;;;2.10;99.90;;;;;;5065198;28;20003;-80
2023/12/08 01:18:42;;;;;;;;;;;2.20;99.90;;;;;;5064960;28;20166;-80
2023/12/08 01:21:09;;;;;;;;;;;2.10;99.90;;;;;;5065418;28;20006;-79
2023/12/08 01:23:36;;;;;;;;;;;2.20;99.90;;;;;;5064734;28;20468;-78
2023/12/08 01:26:06;;;;;;;;;;;2.20;99.90;;;;;;5063823;28;20044;-81
2023/12/08 01:28:32;;;;;;;;;;;2.20;99.90;;;;;;5066148;28;19995;-80
2023/12/08 01:30:59;;;;;;;;;;;2.20;99.90;;;;;;5063007;28;20456;-79
2023/12/08 01:33:26;;;;;;;;;;;2.20;99.90;;;;;;5064665;28;20037;-79
2023/12/08 01:35:52;;;;;;;;;;;2.20;99.90;;;;;;5062646;28;19996;-79
2023/12/08 01:38:19;;;;;;;;;;;2.20;99.90;;;;;;5066330;28;19986;-79
2023/12/08 01:40:46;;;;;;;;;;;2.20;99.90;;;;;;5067100;28;19979;-77
2023/12/08 01:43:13;;;;;;;;;;;2.20;99.90;;;;;;5065754;28;19983;-79
2023/12/08 01:45:40;;;;;;;;;;;2.20;99.90;;;;;;5066530;28;20011;-80
2023/12/08 01:48:07;;;;;;;;;;;2.20;99.90;;;;;;5066308;28;21378;-79
2023/12/08 01:50:34;;;;;;;;;;;2.20;99.90;;;;;;5069356;28;19980;-79
2023/12/08 01:53:01;;;;;;;;;;;2.20;99.90;;;;;;5064295;28;19983;-78
2023/12/08 01:55:27;;;;;;;;;;;2.20;99.90;;;;;;5063980;28;19979;-78
2023/12/08 01:57:55;;;;;;;;;;;2.20;99.90;;;;;;5065672;28;19975;-78
2023/12/08 02:00:22;;;;;;;;;;;2.20;99.90;;;;;;5062752;28;19984;-79
2023/12/08 02:02:49;;;;;;;;;;;2.20;99.90;;;;;;5066381;28;19985;-80
2023/12/08 02:05:16;;;;;;;;;;;2.20;99.90;;;;;;5063121;28;19983;-79
2023/12/08 02:07:43;;;;;;;;;;;2.20;99.90;;;;;;5062730;28;19998;-79
2023/12/08 02:10:10;;;;;;;;;;;2.20;99.90;;;;;;5063933;28;19983;-80
2023/12/08 02:12:36;;;;;;;;;;;2.20;99.90;;;;;;5062361;28;19983;-80
2023/12/08 02:15:05;;;;;;;;;;;2.20;99.90;;;;;;5062140;28;19975;-80
2023/12/08 02:17:33;;;;;;;;;;;2.20;99.90;;;;;;5065359;28;20083;-79
2023/12/08 02:20:03;;;;;;;;;;;2.20;99.90;;;;;;5065618;28;20021;-81
2023/12/08 02:22:29;;;;;;;;;;;2.20;99.90;;;;;;5063453;28;20647;-80
2023/12/08 02:24:57;;;;;;;;;;;2.20;99.90;;;;;;5067008;28;19979;-82
2023/12/08 02:27:24;;;;;;;;;;;2.20;99.90;;;;;;5059641;28;20438;-80
2023/12/08 02:29:50;;;;;;;;;;;2.20;99.90;;;;;;5064480;28;20002;-80
2023/12/08 02:32:22;;;;;;;;;;;2.20;99.90;;;;;;5064050;28;19995;-78
2023/12/08 02:34:49;;;;;;;;;;;2.20;99.90;;;;;;5065112;28;20485;-79
2023/12/08 02:37:17;;;;;;;;;;;2.20;99.90;;;;;;5065933;28;20007;-79
2023/12/08 02:39:44;;;;;;;;;;;2.20;99.90;;;;;;5066758;28;19979;-79
2023/12/08 02:42:12;;;;;;;;;;;2.20;99.90;;;;;;5063374;28;19987;-80
2023/12/08 02:44:39;;;;;;;;;;;2.20;99.90;;;;;;5061792;28;19982;-80
2023/12/08 02:47:05;;;;;;;;;;;2.20;99.90;;;;;;5062709;28;20006;-79
2023/12/08 02:49:32;;;;;;;;;;;2.20;99.90;;;;;;5065635;28;19999;-79
2023/12/08 02:51:59;;;;;;;;;;;2.20;99.90;;;;;;5061124;28;19979;-78
2023/12/08 02:54:25;;;;;;;;;;;2.10;99.90;;;;;;5062393;28;20625;-79
2023/12/08 02:56:52;;;;;;;;;;;2.20;99.90;;;;;;5065370;28;20491;-79
2023/12/08 02:59:20;;;;;;;;;;;2.20;99.90;;;;;;5062519;28;19983;-80
2023/12/08 03:01:46;;;;;;;;;;;2.20;99.90;;;;;;5062993;28;19995;-79
2023/12/08 03:04:13;;;;;;;;;;;2.20;99.90;;;;;;5065053;28;19986;-79
2023/12/08 03:06:39;;;;;;;;;;;2.20;99.90;;;;;;5063438;28;19991;-82
2023/12/08 03:09:06;;;;;;;;;;;2.20;99.90;;;;;;5064227;28;20006;-79
2023/12/08 03:11:32;;;;;;;;;;;2.20;99.90;;;;;;5062228;28;19975;-79
2023/12/08 03:13:59;;;;;;;;;;;2.20;99.90;;;;;;5064517;28;19986;-78
2023/12/08 03:16:26;;;;;;;;;;;2.20;99.90;;;;;;5061825;28;20085;-80
2023/12/08 03:18:53;;;;;;;;;;;2.20;99.90;;;;;;5065571;28;19975;-80
2023/12/08 03:21:23;;;;;;;;;;;2.20;99.90;;;;;;5064230;28;19980;-79
2023/12/08 03:23:49;;;;;;;;;;;2.20;99.90;;;;;;5063218;28;19971;-79
2023/12/08 03:26:16;;;;;;;;;;;2.20;99.90;;;;;;5062195;28;20006;-80
2023/12/08 03:28:42;;;;;;;;;;;2.20;99.90;;;;;;5061378;28;20048;-78
2023/12/08 03:31:20;;;;;;;;;;;2.20;99.90;;;;;;5061818;28;19995;-79
2023/12/08 03:33:48;;;;;;;;;;;2.20;99.90;;;;;;5061692;28;20727;-77
2023/12/08 03:36:14;;;;;;;;;;;2.20;99.90;;;;;;5061075;28;19998;-80
2023/12/08 03:38:41;;;;;;;;;;;2.20;99.90;;;;;;5065776;28;19983;-79
2023/12/08 03:41:07;;;;;;;;;;;2.20;99.90;;;;;;5060564;28;19984;-79
2023/12/08 03:43:34;;;;;;;;;;;2.10;99.90;;;;;;5065213;28;19987;-80
2023/12/08 03:46:00;;;;;;;;;;;2.20;99.90;;;;;;5065285;28;20006;-78
2023/12/08 03:48:27;;;;;;;;;;;2.20;99.90;;;;;;5065167;28;20508;-78
2023/12/08 03:50:55;;;;;;;;;;;2.20;99.90;;;;;;5067406;28;20025;-79
2023/12/08 03:53:21;;;;;;;;;;;2.10;99.90;;;;;;5068888;28;19979;-78
2023/12/08 03:55:48;;;;;;;;;;;2.20;99.90;;;;;;5066249;28;20708;-79
2023/12/08 03:58:14;;;;;;;;;;;2.20;99.90;;;;;;5068820;28;19975;-82
2023/12/08 04:00:41;;;;;;;;;;;2.20;99.90;;;;;;5069974;28;20364;-79
2023/12/08 04:03:07;;;;;;;;;;;2.20;99.90;;;;;;5069051;28;20384;-79
2023/12/08 04:05:34;;;;;;;;;;;2.20;99.90;;;;;;5069573;28;20720;-79
2023/12/08 04:08:04;;;;;;;;;;;2.20;99.90;;;;;;5066298;28;19980;-81
2023/12/08 04:10:30;;;;;;;;;;;2.20;99.90;;;;;;5065971;28;20478;-78
2023/12/08 04:12:57;;;;;;;;;;;2.20;99.90;;;;;;5062964;28;20643;-79
2023/12/08 04:15:24;;;;;;;;;;;2.20;99.90;;;;;;5065536;28;19976;-79
2023/12/08 04:17:50;;;;;;;;;;;2.20;99.90;;;;;;5067262;28;20516;-79
2023/12/08 04:20:17;;;;;;;;;;;2.20;99.90;;;;;;5068694;28;19983;-79
2023/12/08 04:22:44;;;;;;;;;;;2.20;99.90;;;;;;5067181;28;19976;-79
2023/12/08 04:25:13;;;;;;;;;;;2.20;99.90;;;;;;5067548;28;19979;-78
2023/12/08 04:27:39;;;;;;;;;;;2.20;99.90;;;;;;5062666;28;20000;-79
2023/12/08 04:30:06;;;;;;;;;;;2.20;99.90;;;;;;5062254;28;20000;-79
2023/12/08 04:32:33;;;;;;;;;;;2.20;99.90;;;;;;5067112;28;19975;-80
2023/12/08 04:35:00;;;;;;;;;;;2.20;99.90;;;;;;5066728;28;19971;-79
2023/12/08 04:37:26;;;;;;;;;;;2.20;99.90;;;;;;5063407;28;19995;-79
2023/12/08 04:39:53;;;;;;;;;;;2.20;99.90;;;;;;5066983;28;19979;-78
2023/12/08 04:42:21;;;;;;;;;;;2.20;99.90;;;;;;5064001;28;20020;-80
2023/12/08 04:44:47;;;;;;;;;;;2.20;99.90;;;;;;5062377;28;20516;-79
2023/12/08 04:47:14;;;;;;;;;;;2.20;99.90;;;;;;5063722;28;20002;-79
2023/12/08 04:49:40;;;;;;;;;;;2.20;99.90;;;;;;5068920;28;19998;-79
2023/12/08 04:52:07;;;;;;;;;;;2.20;99.90;;;;;;5066824;28;19984;-80
2023/12/08 04:54:33;;;;;;;;;;;2.20;99.90;;;;;;5065831;28;20022;-79
2023/12/08 04:57:00;;;;;;;;;;;2.20;99.90;;;;;;5065259;28;20492;-79
2023/12/08 04:59:28;;;;;;;;;;;2.20;99.90;;;;;;5069584;28;19979;-79
2023/12/08 05:01:54;;;;;;;;;;;2.20;99.90;;;;;;5067214;28;19991;-79
2023/12/08 05:04:21;;;;;;;;;;;2.20;99.90;;;;;;5066340;28;20721;-78
2023/12/08 05:06:47;;;;;;;;;;;2.20;99.90;;;;;;5065156;28;19999;-79
2023/12/08 05:09:14;;;;;;;;;;;2.20;99.90;;;;;;5063629;28;20006;-79
2023/12/08 05:11:40;;;;;;;;;;;2.20;99.90;;;;;;5065244;28;20350;-79
2023/12/08 05:14:07;;;;;;;;;;;2.20;99.90;;;;;;5063357;28;19987;-79
2023/12/08 05:16:35;;;;;;;;;;;2.20;99.90;;;;;;5062444;28;19996;-79
2023/12/08 05:19:01;;;;;;;;;;;2.20;99.90;;;;;;5061320;28;19982;-78
2023/12/08 05:21:28;;;;;;;;;;;2.20;99.90;;;;;;5061109;28;19987;-79
2023/12/08 05:23:54;;;;;;;;;;;2.20;99.90;;;;;;5066318;28;20014;-79
2023/12/08 05:26:21;;;;;;;;;;;2.20;99.90;;;;;;5063742;28;20011;-80
2023/12/08 05:28:48;;;;;;;;;;;2.20;99.90;;;;;;5062532;28;20111;-79
2023/12/08 05:31:14;;;;;;;;;;;2.20;99.90;;;;;;5063849;28;20086;-78
2023/12/08 05:33:42;;;;;;;;;;;2.20;99.90;;;;;;5066548;28;20508;-80
2023/12/08 05:36:10;;;;;;;;;;;2.20;99.90;;;;;;5063520;28;20702;-78
2023/12/08 05:38:36;;;;;;;;;;;2.20;99.90;;;;;;5062147;28;19980;-79
2023/12/08 05:41:04;;;;;;;;;;;2.20;99.90;;;;;;5062271;28;19976;-78
2023/12/08 05:43:30;;;;;;;;;;;2.20;99.90;;;;;;5063948;28;20424;-79
2023/12/08 05:45:57;;;;;;;;;;;2.20;99.90;;;;;;5063083;28;20464;-78
2023/12/08 05:48:23;;;;;;;;;;;2.20;99.90;;;;;;5062448;28;19976;-78
2023/12/08 05:50:51;;;;;;;;;;;2.20;99.90;;;;;;5063613;28;19995;-80
2023/12/08 05:53:18;;;;;;;;;;;2.20;99.90;;;;;;5062754;28;20010;-80
2023/12/08 05:55:44;;;;;;;;;;;2.20;99.90;;;;;;5064307;28;19995;-78
2023/12/08 05:58:11;;;;;;;;;;;2.20;99.90;;;;;;5062481;28;19975;-79
2023/12/08 06:00:38;;;;;;;;;;;2.30;99.90;;;;;;5061735;28;19991;-79
2023/12/08 06:03:04;;;;;;;;;;;2.20;99.90;;;;;;5065926;28;19986;-80
2023/12/08 06:05:31;;;;;;;;;;;2.20;99.90;;;;;;5064609;28;19986;-78
2023/12/08 06:07:59;;;;;;;;;;;2.20;99.90;;;;;;5062579;28;19982;-78
2023/12/08 06:10:26;;;;;;;;;;;2.20;99.90;;;;;;5066366;28;19998;-79
2023/12/08 06:12:52;;;;;;;;;;;2.20;99.90;;;;;;5061643;28;19987;-78
2023/12/08 06:15:19;;;;;;;;;;;2.20;99.90;;;;;;5058120;28;20502;-80
2023/12/08 06:17:45;;;;;;;;;;;2.20;99.90;;;;;;5061226;28;19979;-78
2023/12/08 06:20:12;;;;;;;;;;;2.20;99.90;;;;;;5063759;28;20340;-78
2023/12/08 06:22:39;;;;;;;;;;;2.20;99.90;;;;;;5063814;28;21174;-78
2023/12/08 06:25:08;;;;;;;;;;;2.20;99.90;;;;;;5064119;28;19983;-80
2023/12/08 06:27:34;;;;;;;;;;;2.20;99.90;;;;;;5064482;28;20378;-78
2023/12/08 06:30:01;;;;;;;;;;;2.20;99.90;;;;;;5058831;28;20473;-78
2023/12/08 06:32:28;;;;;;;;;;;2.20;99.90;;;;;;5063473;28;19995;-78
2023/12/08 06:34:55;;;;;;;;;;;2.30;99.90;;;;;;5062304;28;20061;-80
2023/12/08 06:37:21;;;;;;;;;;;2.30;99.90;;;;;;5064901;28;20041;-78
2023/12/08 06:39:48;;;;;;;;;;;2.20;99.90;;;;;;5063316;28;19986;-80
2023/12/08 06:42:16;;;;;;;;;;;2.20;99.90;;;;;;5060334;28;19975;-77
2023/12/08 06:44:42;;;;;;;;;;;2.20;99.90;;;;;;5059972;28;19982;-77
2023/12/08 06:47:09;;;;;;;;;;;2.30;99.90;;;;;;5058753;28;19995;-78
2023/12/08 06:49:36;;;;;;;;;;;2.30;99.90;;;;;;5063864;28;21999;-78
2023/12/08 06:52:03;;;;;;;;;;;2.20;99.90;;;;;;5062563;28;19980;-78
2023/12/08 06:54:29;;;;;;;;;;;2.30;99.90;;;;;;5064426;28;20426;-67
2023/12/08 06:56:56;;;;;;;;;;;2.30;99.90;;;;;;5065606;28;19995;-67
2023/12/08 06:59:24;;;;;;;;;;;2.30;99.90;;;;;;5062773;28;19990;-68
2023/12/08 07:01:50;;;;;;;;;;;2.20;99.90;;;;;;5067016;28;19991;-67
2023/12/08 07:04:17;;;;;;;;;;;2.20;99.90;;;;;;5061992;28;19979;-67
2023/12/08 07:06:44;;;;;;;;;;;2.20;99.90;;;;;;5066134;28;20002;-68
2023/12/08 07:09:11;;;;;;;;;;;2.20;99.90;;;;;;5063171;28;19981;-69
2023/12/08 07:11:37;;;;;;;;;;;2.20;99.90;;;;;;5065789;28;20082;-70
2023/12/08 07:14:04;;;;;;;;;;;2.20;99.90;;;;;;5059765;28;19971;-68
2023/12/08 07:16:32;;;;;;;;;;;2.30;99.90;;;;;;5064546;28;20002;-68
2023/12/08 07:18:58;;;;;;;;;;;2.30;99.90;;;;;;5058808;28;19984;-68
2023/12/08 07:21:25;;;;;;;;;;;2.30;99.90;;;;;;5059004;28;20330;-67
2023/12/08 07:23:51;;;;;;;;;;;2.30;99.90;;;;;;5064427;28;20632;-68
2023/12/08 07:26:18;;;;;;;;;;;2.30;99.90;;;;;;5062745;28;20000;-67
2023/12/08 07:28:45;;;;;;;;;;;2.20;99.90;;;;;;5064287;28;20560;-69
2023/12/08 07:31:12;;;;;;;;;;;2.20;99.90;;;;;;5059464;28;19996;-77
2023/12/08 07:33:40;;;;;;;;;;;2.30;99.90;;;;;;5061548;28;19976;-79
2023/12/08 07:36:07;;;;;;;;;;;2.30;99.90;;;;;;5062076;28;20405;-80
2023/12/08 07:38:34;;;;;;;;;;;2.30;99.90;;;;;;5058469;28;19987;-79
2023/12/08 07:41:00;;;;;;;;;;;2.30;99.90;;;;;;5061057;28;19976;-78
2023/12/08 07:43:27;;;;;;;;;;;2.30;99.90;;;;;;5062146;28;20023;-80
2023/12/08 07:45:54;;;;;;;;;;;2.30;99.90;;;;;;5059975;28;20496;-79
2023/12/08 07:48:20;;;;;;;;;;;2.30;99.90;;;;;;5064501;28;19986;-79
2023/12/08 07:50:48;;;;;;;;;;;2.30;99.90;;;;;;5058440;28;19998;-78
2023/12/08 07:53:14;;;;;;;;;;;2.30;99.90;;;;;;5057012;28;19976;-77
2023/12/08 07:55:41;;;;;;;;;;;2.30;99.90;;;;;;5058524;28;20002;-78
2023/12/08 07:58:08;;;;;;;;;;;2.30;99.90;;;;;;5060938;28;20022;-79
2023/12/08 08:00:35;;;;;;;;;;;2.30;99.90;;;;;;5058880;28;20060;-78
2023/12/08 08:03:02;;;;;;;;;;;2.30;99.90;;;;;;5062961;28;19979;-78
2023/12/08 08:05:28;;;;;;;;;;;2.30;99.90;;;;;;5060013;28;19975;-79
2023/12/08 08:07:56;;;;;;;;;;;2.30;99.90;;;;;;5064782;28;19983;-78
2023/12/08 08:10:23;;;;;;;;;;;2.30;99.90;;;;;;5059829;28;19997;-77
2023/12/08 08:12:49;;;;;;;;;;;2.30;99.90;;;;;;5059722;28;19982;-79
2023/12/08 08:15:16;;;;;;;;;;;2.30;99.90;;;;;;5057428;28;19992;-79
2023/12/08 08:17:43;;;;;;;;;;;2.30;99.90;;;;;;5063366;28;19991;-78
2023/12/08 08:20:09;;;;;;;;;;;2.30;99.90;;;;;;5058517;28;19975;-79
2023/12/08 08:22:36;;;;;;;;;;;2.30;99.90;;;;;;5060226;28;20425;-79
2023/12/08 08:25:04;;;;;;;;;;;2.30;99.90;;;;;;5058712;28;20025;-78
2023/12/08 08:27:31;;;;;;;;;;;2.30;99.90;;;;;;5059506;28;19995;-77
2023/12/08 08:29:59;;;;;;;;;;;2.30;99.90;;;;;;5062347;28;20690;-78
2023/12/08 08:32:25;;;;;;;;;;;2.30;99.90;;;;;;5062736;28;20090;-79
2023/12/08 08:34:52;;;;;;;;;;;2.30;99.90;;;;;;5065509;28;19975;-80
2023/12/08 08:37:22;;;;;;;;;;;2.30;99.90;;;;;;5061952;28;20406;-78
2023/12/08 08:39:49;;;;;;;;;;;2.30;99.90;;;;;;5065852;28;19975;-80
2023/12/08 08:42:17;;;;;;;;;;;2.40;99.90;;;;;;5066173;28;19983;-78
2023/12/08 08:44:44;;;;;;;;;;;2.30;99.90;;;;;;5061492;28;19984;-78
2023/12/08 08:47:12;;;;;;;;;;;2.30;99.90;;;;;;5062714;28;20014;-79
2023/12/08 08:49:38;;;;;;;;;;;2.30;99.90;;;;;;5061652;28;19979;-67
2023/12/08 08:52:05;;;;;;;;;;;2.30;99.90;;;;;;5065572;28;19999;-68
2023/12/08 08:54:31;;;;;;;;;;;2.40;99.90;;;;;;5067405;28;20005;-68
2023/12/08 08:56:58;;;;;;;;;;;2.40;99.90;;;;;;5068666;28;20017;-67
2023/12/08 08:59:26;;;;;;;;;;;2.30;99.90;;;;;;5065198;28;22108;-66
2023/12/08 09:01:52;;;;;;;;;;;2.40;99.90;;;;;;5065151;28;20015;-67
2023/12/08 09:04:19;;;;;;;;;;;2.40;99.90;;;;;;5066784;28;19979;-68
2023/12/08 09:06:45;;;;;;;;;;;2.40;99.90;;;;;;5067932;28;20457;-68
2023/12/08 09:09:12;;;;;;;;;;;2.40;99.90;;;;;;5068725;28;19982;-66
2023/12/08 09:11:38;;;;;;;;;;;2.40;99.90;;;;;;5069051;28;20108;-67
2023/12/08 09:14:05;;;;;;;;;;;2.40;99.90;;;;;;5064709;28;19979;-68
2023/12/08 09:16:33;;;;;;;;;;;2.40;99.90;;;;;;5065842;28;20068;-68
2023/12/08 09:18:59;;;;;;;;;;;2.40;99.90;;;;;;5065966;28;20005;-68
2023/12/08 09:21:26;;;;;;;;;;;2.40;99.90;;;;;;5059342;28;19976;-67
2023/12/08 09:23:52;;;;;;;;;;;2.40;99.90;;;;;;5065545;28;20029;-68
2023/12/08 09:26:19;;;;;;;;;;;2.40;99.90;;;;;;5064352;28;19999;-67
2023/12/08 09:28:46;;;;;;;;;;;2.40;99.90;;;;;;5064701;28;20532;-67
2023/12/08 09:31:13;;;;;;;;;;;2.40;99.90;;;;;;5063041;28;20034;-67
2023/12/08 09:33:41;;;;;;;;;;;2.40;99.90;;;;;;5066115;28;19979;-68
2023/12/08 09:36:08;;;;;;;;;;;2.40;99.90;;;;;;5065450;28;20696;-68
2023/12/08 09:38:35;;;;;;;;;;;2.40;99.90;;;;;;5066067;28;19976;-67
2023/12/08 09:41:04;;;;;;;;;;;2.40;99.90;;;;;;5066293;28;19979;-67
2023/12/08 09:43:35;;;;;;;;;;;2.40;99.90;;;;;;5063567;28;19980;-67
2023/12/08 09:46:02;;;;;;;;;;;2.40;99.90;;;;;;5064256;28;20010;-67
2023/12/08 09:48:29;;;;;;;;;;;2.40;99.90;;;;;;5062618;28;20057;-68
2023/12/08 09:50:58;;;;;;;;;;;2.50;99.90;;;;;;5065450;28;19995;-67
2023/12/08 09:53:25;;;;;;;;;;;2.50;99.90;;;;;;5061466;28;19983;-67
2023/12/08 09:55:53;;;;;;;;;;;2.50;99.90;;;;;;5063991;28;19995;-67
2023/12/08 09:58:22;;;;;;;;;;;2.50;99.90;;;;;;5063894;28;19979;-69
2023/12/08 10:00:49;;;;;;;;;;;2.50;99.90;;;;;;5063613;28;20109;-68
2023/12/08 10:03:15;;;;;;;;;;;2.50;99.90;;;;;;5065543;28;20070;-66
2023/12/08 10:05:42;;;;;;;;;;;2.50;99.90;;;;;;5064611;28;19979;-68
2023/12/08 10:08:10;;;;;;;;;;;2.50;99.90;;;;;;5063611;28;19989;-68
2023/12/08 10:10:37;;;;;;;;;;;2.50;99.90;;;;;;5063557;28;19976;-67
2023/12/08 10:13:04;;;;;;;;;;;2.50;99.90;;;;;;5058643;28;19975;-68
2023/12/08 10:15:31;;;;;;;;;;;2.50;99.90;;;;;;5055618;28;20376;-67
2023/12/08 10:17:57;;;;;;;;;;;2.50;99.90;;;;;;5065108;28;19986;-66
2023/12/08 10:20:24;;;;;;;;;;;2.50;99.90;;;;;;5064001;28;19979;-67
2023/12/08 10:22:51;;;;;;;;;;;2.50;99.90;;;;;;5061049;28;19983;-67
2023/12/08 10:25:20;;;;;;;;;;;2.50;99.90;;;;;;5064475;28;19990;-67
2023/12/08 10:27:47;;;;;;;;;;;2.50;99.90;;;;;;5064853;28;19999;-67
2023/12/08 10:30:15;;;;;;;;;;;2.60;99.90;;;;;;5062003;28;19979;-76
2023/12/08 10:32:42;;;;;;;;;;;2.60;99.90;;;;;;5057468;28;19995;-75
2023/12/08 10:35:10;;;;;;;;;;;2.60;99.90;;;;;;5058569;28;19979;-74
2023/12/08 10:37:36;;;;;;;;;;;2.60;99.90;;;;;;5060866;28;19998;-75
2023/12/08 10:40:03;;;;;;;;;;;2.60;99.90;;;;;;5057596;28;19983;-75
2023/12/08 10:42:32;;;;;;;;;;;2.60;99.90;;;;;;5068180;28;20488;-75
2023/12/08 10:44:58;;;;;;;;;;;2.60;99.90;;;;;;5068102;28;19980;-75
2023/12/08 10:47:25;;;;;;;;;;;2.60;99.90;;;;;;5068346;28;20000;-75
2023/12/08 10:49:53;;;;;;;;;;;2.60;99.90;;;;;;5063200;28;19976;-74
2023/12/08 10:52:22;;;;;;;;;;;2.70;99.90;;;;;;5059032;28;20003;-74
2023/12/08 10:54:49;;;;;;;;;;;2.60;99.90;;;;;;5061956;28;19979;-75
2023/12/08 10:57:15;;;;;;;;;;;2.70;99.90;;;;;;5059238;28;20043;-75
2023/12/08 10:59:45;;;;;;;;;;;2.70;99.90;;;;;;5057868;28;19979;-74
2023/12/08 11:02:17;;;;;;;;;;;2.70;99.90;;;;;;5057270;28;20034;-75
2023/12/08 11:04:45;;;;;;;;;;;2.70;99.90;;;;;;5058069;28;19976;-74
2023/12/08 11:07:15;;;;;;;;;;;2.70;99.90;;;;;;5059805;28;20014;-73
2023/12/08 11:09:42;;;;;;;;;;;2.80;99.90;;;;;;5058228;28;20503;-74
2023/12/08 11:12:11;;;;;;;;;;;2.80;99.90;;;;;;5057084;28;19995;-74
2023/12/08 11:14:38;;;;;;;;;;;2.80;99.90;;;;;;5058017;28;20028;-74
2023/12/08 11:17:10;;;;;;;;;;;2.80;99.90;;;;;;5058866;28;20090;-75
2023/12/08 11:19:37;;;;;;;;;;;2.80;99.90;;;;;;5060564;28;19986;-76
2023/12/08 11:22:05;;;;;;;;;;;2.80;99.90;;;;;;5057722;28;19984;-75
2023/12/08 11:24:32;;;;;;;;;;;2.80;99.90;;;;;;5057353;28;20001;-74
2023/12/08 11:27:02;;;;;;;;;;;2.90;99.90;;;;;;5057347;28;19999;-75
2023/12/08 11:29:33;;;;;;;;;;;2.90;99.90;;;;;;5057229;28;20539;-74
2023/12/08 11:32:02;;;;;;;;;;;2.90;99.90;;;;;;5058225;28;19996;-76
2023/12/08 11:34:34;;;;;;;;;;;2.90;99.90;;;;;;5060113;28;19999;-74
2023/12/08 11:37:01;;;;;;;;;;;2.90;99.90;;;;;;5053134;28;19999;-74
2023/12/08 11:39:41;;;;;;;;;;;2.90;99.90;;;;;;5057864;28;19987;-74
2023/12/08 11:42:09;;;;;;;;;;;2.90;99.90;;;;;;5059960;28;21156;-74
2023/12/08 11:44:36;;;;;;;;;;;2.90;99.90;;;;;;5059597;28;20064;-76
2023/12/08 11:47:03;;;;;;;;;;;2.90;99.90;;;;;;5056109;28;20002;-72
2023/12/08 11:49:31;;;;;;;;;;;3.00;99.90;;;;;;5061991;28;19971;-75
2023/12/08 11:52:15;;;;;;;;;;;3.00;99.90;;;;;;5059152;28;19995;-74
2023/12/08 11:55:00;;;;;;;;;;;3.00;99.90;;;;;;5057288;28;19987;-74
2023/12/08 11:57:27;;;;;;;;;;;3.00;99.90;;;;;;5055797;28;20488;-75
2023/12/08 11:59:54;;;;;;;;;;;3.00;99.90;;;;;;5057657;28;19980;-73
2023/12/08 12:02:21;;;;;;;;;;;3.00;99.90;;;;;;5062742;28;20909;-73
2023/12/08 12:04:49;;;;;;;;;;;3.00;99.90;;;;;;5062631;28;20006;-74
2023/12/08 12:07:18;;;;;;;;;;;3.00;99.90;;;;;;5062251;28;20043;-75
2023/12/08 12:09:46;;;;;;;;;;;3.10;99.90;;;;;;5064459;28;19975;-74
2023/12/08 12:12:15;;;;;;;;;;;3.10;99.90;;;;;;5061989;28;19991;-74
2023/12/08 12:14:45;;;;;;;;;;;3.10;99.90;;;;;;5064556;28;20338;-73
2023/12/08 12:17:12;;;;;;;;;;;3.10;99.90;;;;;;5065094;28;20000;-74
2023/12/08 12:19:39;;;;;;;;;;;3.10;99.90;;;;;;5064205;28;20377;-73
2023/12/08 12:22:07;;;;;;;;;;;3.10;99.90;;;;;;5059437;28;19982;-73
2023/12/08 12:24:34;;;;;;;;;;;3.10;99.90;;;;;;5065950;28;19979;-74
2023/12/08 12:27:01;;;;;;;;;;;3.10;99.90;;;;;;5062747;28;20517;-74
2023/12/08 12:29:27;;;;;;;;;;;3.20;99.90;;;;;;5062046;28;20426;-74
2023/12/08 12:31:54;;;;;;;;;;;3.10;99.90;;;;;;5063849;28;19995;-74
2023/12/08 12:34:21;;;;;;;;;;;3.20;99.90;;;;;;5066705;28;19981;-73
2023/12/08 12:36:47;;;;;;;;;;;3.20;99.90;;;;;;5058984;28;19999;-75
2023/12/08 12:39:15;;;;;;;;;;;3.20;99.90;;;;;;5064848;28;19982;-73
2023/12/08 12:41:42;;;;;;;;;;;3.20;99.90;;;;;;5066973;28;19986;-75
2023/12/08 12:44:08;;;;;;;;;;;3.20;99.90;;;;;;5064076;28;20718;-74
2023/12/08 12:46:35;;;;;;;;;;;3.20;99.90;;;;;;5061599;28;19999;-74
2023/12/08 12:49:02;;;;;;;;;;;3.30;99.90;;;;;;5061891;28;19979;-74
2023/12/08 12:51:33;;;;;;;;;;;3.30;99.90;;;;;;5064063;28;20599;-74
2023/12/08 12:54:00;;;;;;;;;;;3.30;99.90;;;;;;5061247;28;20062;-75
2023/12/08 12:56:28;;;;;;;;;;;3.30;99.90;;;;;;5064560;28;19995;-75
2023/12/08 12:59:04;;;;;;;;;;;3.30;99.90;;;;;;5063351;28;19975;-74
2023/12/08 13:01:31;;;;;;;;;;;3.30;99.90;;;;;;5063565;28;20104;-74
2023/12/08 13:03:58;;;;;;;;;;;3.40;99.90;;;;;;5062627;28;19982;-75
2023/12/08 13:06:29;;;;;;;;;;;3.30;99.90;;;;;;5064977;28;19998;-76
2023/12/08 13:08:56;;;;;;;;;;;3.30;99.90;;;;;;5063623;28;20024;-74
2023/12/08 13:11:23;;;;;;;;;;;3.40;99.90;;;;;;5065925;28;20006;-75
2023/12/08 13:13:51;;;;;;;;;;;3.40;99.90;;;;;;5058715;28;19983;-74
2023/12/08 13:16:18;;;;;;;;;;;3.40;99.90;;;;;;5064356;28;20000;-74
2023/12/08 13:18:44;;;;;;;;;;;3.40;99.90;;;;;;5062029;28;20652;-73
2023/12/08 13:21:11;;;;;;;;;;;3.40;99.90;;;;;;5060805;28;20311;-75
2023/12/08 13:23:38;;;;;;;;;;;3.40;99.90;;;;;;5061981;28;20072;-73
2023/12/08 13:26:05;;;;;;;;;;;3.50;99.90;;;;;;5061651;28;19991;-74
2023/12/08 13:28:32;;;;;;;;;;;3.50;99.90;;;;;;5061755;28;20001;-75
2023/12/08 13:31:00;;;;;;;;;;;3.50;99.90;;;;;;5063176;28;19991;-74
2023/12/08 13:33:27;;;;;;;;;;;3.50;99.90;;;;;;5063925;28;19999;-74
2023/12/08 13:35:53;;;;;;;;;;;3.50;99.90;;;;;;5061122;28;19998;-72
2023/12/08 13:38:20;;;;;;;;;;;3.50;99.90;;;;;;5063859;28;19987;-75
2023/12/08 13:40:48;;;;;;;;;;;3.50;99.90;;;;;;5066277;28;20391;-74
2023/12/08 13:43:14;;;;;;;;;;;3.50;99.90;;;;;;5066329;28;20662;-72
2023/12/08 13:45:41;;;;;;;;;;;3.50;99.90;;;;;;5062383;28;20419;-75
2023/12/08 13:48:09;;;;;;;;;;;3.60;99.90;;;;;;5060481;28;20045;-73
2023/12/08 13:50:35;;;;;;;;;;;3.60;99.90;;;;;;5062516;28;19982;-73
2023/12/08 13:53:02;;;;;;;;;;;3.60;99.90;;;;;;5063210;28;19998;-74
2023/12/08 13:55:29;;;;;;;;;;;3.60;99.90;;;;;;5061270;28;20441;-74
2023/12/08 13:57:55;;;;;;;;;;;3.60;99.90;;;;;;5064458;28;20006;-73
2023/12/08 14:00:22;;;;;;;;;;;3.60;99.90;;;;;;5058320;28;20403;-73
2023/12/08 14:02:49;;;;;;;;;;;3.70;99.90;;;;;;5063638;28;19983;-73
2023/12/08 14:05:17;;;;;;;;;;;3.60;99.90;;;;;;5058644;28;20078;-73
2023/12/08 14:07:44;;;;;;;;;;;3.60;99.90;;;;;;5061908;28;20003;-74
2023/12/08 14:10:11;;;;;;;;;;;3.70;99.90;;;;;;5060871;28;20010;-74
2023/12/08 14:12:37;;;;;;;;;;;3.70;99.90;;;;;;5063311;28;19992;-73
2023/12/08 14:15:04;;;;;;;;;;;3.70;99.90;;;;;;5060575;28;20399;-74
2023/12/08 14:17:31;;;;;;;;;;;3.70;99.90;;;;;;5060981;28;20090;-73
2023/12/08 14:19:59;;;;;;;;;;;3.70;99.90;;;;;;5059078;28;19976;-73
2023/12/08 14:22:26;;;;;;;;;;;3.70;99.90;;;;;;5061518;28;19987;-73
2023/12/08 14:24:54;;;;;;;;;;;3.70;99.90;;;;;;5060817;28;19976;-73
2023/12/08 14:27:21;;;;;;;;;;;3.80;99.90;;;;;;5053226;28;19995;-72
2023/12/08 14:29:48;;;;;;;;;;;3.70;99.90;;;;;;5060895;28;19975;-73